Terminal Aerodrome Forecast
Issued by NWS Pocatello, ID

Home | Current Version | Previous Version | Text Only | Print | Product List | Glossary On
Versions: 1 2 3 4 5 6 7 8 9 10 11 12 13
000
FTUS45 KPIH 030500
TAFBYI
TAF
KBYI 030520Z 0306/0406 24012G22KT P6SM SCT090
     FM031200 27015G25KT P6SM VCSH SCT020 BKN040
     FM031400 28015G25KT 2SM -SN BR SCT010 BKN020
     FM031900 VRB06KT P6SM VCSH SCT020 BKN040
     FM040200 VRB06KT P6SM SCT040 BKN070=

USA.gov is the U.S. government's official web portal to all federal, state and local government web resources and services.